Aeroporto :







RITROVATECI SU...

 
LOGIN :

Iscrizione | Disclaimer

   EN    FR    IT 

 









Sommario :    VFR   VFR Marginale   IFR   IFR Intensivo   IFR Molto Intensivo
Visibilità : 
Base nubi : 
>= 8 km
>= 3000ft
5 / 8 km
1000 / 3000 ft
1500m / 5 km
500 / 1000 ft
800 / 1500m
200 / 500 ft
< 800m
< 200 ft
Simboli :   Temporali  Nebbia  Neve Forte  Precipitazioni Forti  Vento > 20 kt







- Altitudine del aeroporto : 160 ft
- Codice IATA : YYG


CYYG - Charlottetown

ULTIMO METAR :
  • 251400Z 04008G15KT 15SM FEW020 18/10 A3040 RMK CF1 CF TR SLP296

METARs OBSOLETI :
  • 251300Z 05003KT 15SM FEW023 17/10 A3040 RMK CF1 CF TR WND ESTD SLP296
  • 251200Z /////KT 15SM FEW025 16/10 A3039 RMK CU1 SLP294

TAF TAF CYYG
Valido dal 25 a 12 ore il 26 a 00 ore UTC


251138Z 2512/2524 01005KT P6SM FEW030
FM251400 03007KT P6SM FEW040 RMK NXT FCST BY 251800Z
Nessun NOTAM noto per questo aeroporto.



MetMap, La meteo Aeronautica in un colpo d'occhio ! - Copyright ORBIFLY Dicembre 2007 - Disclaimer

ORBIFLY MET'MAP TEAM :

Programmazione e sviluppo : Alexandra Zaïnal
Concezione e sviluppo : Baudouin d'Aumeries
Co-Programmazione e sviluppo : Marc-Olivier Méhu
Supporto tecnico e logistico : Manuel Goepfert
Aiuto per la traduzione : Arnaldo La Scala

Contatto : metmap@orbifly.com




FONTI E CREDITI :

   NOAA